Time;durP1;ratioP1;P1;durP2;ratioP2;P2;SDS_P1;SDS_P2;PMS_P1;PMS_P2;Temp;Humidity;BMP_temperature;BMP_pressure;BME280_temperature;BME280_humidity;BME280_pressure;Samples;Min_cycle;Max_cycle;Signal;HPM_P1;HPM_P2
2022/05/08 00:00:50;;;;;;;3.70;1.10;;;;;;;9.83;53.48;94946.00;2617131;54;20952;-81
2022/05/08 00:03:19;;;;;;;1.87;0.93;;;;;;;9.87;52.97;94925.63;2617204;54;20156;-80
2022/05/08 00:05:48;;;;;;;0.80;0.80;;;;;;;9.75;53.66;94908.91;2617234;47;20149;-79
2022/05/08 00:08:17;;;;;;;1.10;1.10;;;;;;;9.43;54.67;94922.47;2616825;47;20164;-78
2022/05/08 00:10:46;;;;;;;1.10;0.93;;;;;;;9.36;55.40;94942.66;2617001;54;20173;-79
2022/05/08 00:13:14;;;;;;;2.00;1.73;;;;;;;9.00;56.08;94914.34;2617034;54;20152;-79
2022/05/08 00:15:43;;;;;;;1.17;1.13;;;;;;;9.09;56.60;94938.72;2618001;39;20512;-78
2022/05/08 00:18:23;;;;;;;0.87;0.87;;;;;;;9.29;57.77;94936.03;2617200;47;20156;-78
2022/05/08 00:20:52;;;;;;;10.73;1.33;;;;;;;9.67;54.71;94888.06;2618126;39;20517;-80
2022/05/08 00:23:21;;;;;;;4.57;1.20;;;;;;;10.51;54.42;94935.91;2617214;54;20153;-81
2022/05/08 00:25:50;;;;;;;0.93;0.93;;;;;;;11.00;52.60;94943.31;2617270;47;20702;-80
2022/05/08 00:28:19;;;;;;;4.37;1.17;;;;;;;11.50;50.85;94947.13;2617109;54;20152;-81
2022/05/08 00:30:48;;;;;;;0.57;0.57;;;;;;;11.56;50.30;94943.78;2616826;54;20164;-81
2022/05/08 00:33:20;;;;;;;0.80;0.80;;;;;;;11.50;49.92;94941.47;2617084;47;20145;-81
2022/05/08 00:35:58;;;;;;;0.90;0.90;;;;;;;11.06;50.48;94952.03;2617280;47;20153;-80
2022/05/08 00:38:27;;;;;;;1.20;1.20;;;;;;;11.73;51.27;94878.41;2617022;54;20153;-80
2022/05/08 00:40:55;;;;;;;0.87;0.87;;;;;;;12.00;49.42;94916.16;2617036;54;20212;-80
2022/05/08 00:43:42;;;;;;;0.83;0.83;;;;;;;12.04;49.08;94938.97;2617242;54;20149;-80
2022/05/08 00:46:13;;;;;;;1.00;0.97;;;;;;;11.84;48.76;94938.34;2616833;54;20161;-80
2022/05/08 00:48:45;;;;;;;1.80;1.30;;;;;;;11.89;49.70;94939.94;2617007;47;20683;-80
2022/05/08 00:51:17;;;;;;;4.63;1.00;;;;;;;11.54;50.25;94938.78;2617267;54;20152;-80
2022/05/08 00:53:51;;;;;;;1.47;1.00;;;;;;;10.62;51.22;94894.50;2617057;54;20153;-80
2022/05/08 00:56:28;;;;;;;1.13;0.80;;;;;;;10.31;52.41;94929.47;2617995;39;20701;-78
2022/05/08 00:58:58;;;;;;;1.50;0.83;;;;;;;10.47;52.73;94924.41;2616813;54;20152;-78
2022/05/08 01:01:28;;;;;;;1.10;1.00;;;;;;;10.79;51.79;94927.69;2616537;47;20645;-80
2022/05/08 01:03:59;;;;;;;1.23;1.23;;;;;;;11.43;49.59;94908.63;2617191;47;20145;-80
2022/05/08 01:06:29;;;;;;;0.63;0.63;;;;;;;12.24;51.57;94925.41;2617233;47;20652;-80
2022/05/08 01:08:58;;;;;;;0.57;0.57;;;;;;;13.15;48.34;94890.31;2617605;47;20161;-80
2022/05/08 01:11:27;;;;;;;0.93;0.93;;;;;;;14.07;46.21;94918.94;2617757;54;20207;-81
2022/05/08 01:13:56;;;;;;;0.87;0.87;;;;;;;13.97;45.42;94936.50;2617775;54;20160;-81
2022/05/08 01:16:25;;;;;;;0.80;0.80;;;;;;;13.91;45.35;94933.50;2617649;47;20152;-81
2022/05/08 01:18:54;;;;;;;0.70;0.70;;;;;;;14.29;45.94;94915.88;2617704;47;20145;-81
2022/05/08 01:21:36;;;;;;;0.80;0.80;;;;;;;14.06;45.46;94903.97;2617829;47;20153;-80
2022/05/08 01:24:06;;;;;;;3.30;1.03;;;;;;;13.61;44.94;94910.00;2617919;54;20145;-80
2022/05/08 01:26:34;;;;;;;1.10;1.10;;;;;;;13.10;45.18;94939.94;2617704;54;20145;-80
2022/05/08 01:29:04;;;;;;;0.90;0.90;;;;;;;12.77;45.44;94918.41;2617413;54;20149;-81
2022/05/08 01:31:43;;;;;;;0.63;0.60;;;;;;;12.67;46.50;94938.75;2617452;54;20176;-78
2022/05/08 01:34:15;;;;;;;0.60;0.60;;;;;;;12.00;48.59;94916.88;2617629;54;20633;-78
2022/05/08 01:36:47;;;;;;;3.13;1.30;;;;;;;12.79;49.66;94927.72;2617525;47;20157;-81
2022/05/08 01:39:16;;;;;;;0.80;0.80;;;;;;;12.40;47.44;94923.06;2617674;47;20156;-80
2022/05/08 01:41:45;;;;;;;1.00;1.00;;;;;;;12.23;49.08;94923.22;2617532;47;20156;-81
2022/05/08 01:44:14;;;;;;;0.90;0.90;;;;;;;13.07;49.61;94927.06;2617506;46;20160;-80
2022/05/08 01:46:43;;;;;;;1.40;1.30;;;;;;;13.22;47.47;94914.72;2617506;54;20169;-80
2022/05/08 01:49:09;;;;;;;0.90;0.90;;;;;;;13.04;46.50;94888.59;2617620;54;20157;-81
2022/05/08 01:51:39;;;;;;;0.83;0.83;;;;;;;12.17;49.92;94918.06;2617519;54;20153;-79
2022/05/08 01:54:18;;;;;;;2.23;0.80;;;;;;;13.00;47.08;94894.16;2617716;54;20153;-79
2022/05/08 01:56:47;;;;;;;1.23;1.13;;;;;;;12.70;47.42;94914.69;2617677;54;20156;-81
2022/05/08 01:59:16;;;;;;;1.47;1.43;;;;;;;12.73;48.21;94916.19;2617649;54;20160;-80
2022/05/08 02:01:46;;;;;;;0.63;0.63;;;;;;;13.59;47.36;94904.97;2617642;47;20145;-81
2022/05/08 02:04:15;;;;;;;0.47;0.47;;;;;;;14.37;46.31;94918.88;2617608;54;20215;-81
2022/05/08 02:06:44;;;;;;;1.23;0.90;;;;;;;14.89;45.02;94922.91;2617649;54;20172;-81
2022/05/08 02:09:18;;;;;;;1.67;1.13;;;;;;;15.08;43.66;94883.31;2617495;54;20156;-80
2022/05/08 02:11:54;;;;;;;0.80;0.80;;;;;;;15.05;43.29;94864.69;2617536;47;20715;-81
2022/05/08 02:14:24;;;;;;;0.90;0.90;;;;;;;14.47;42.93;94907.75;2618512;39;20563;-81
2022/05/08 02:16:52;;;;;;;1.00;1.00;;;;;;;15.25;43.79;94925.00;2617465;54;20165;-81
2022/05/08 02:19:22;;;;;;;1.10;1.00;;;;;;;15.40;43.31;94901.03;2617532;54;20149;-81
2022/05/08 02:21:51;;;;;;;0.97;0.97;;;;;;;15.49;42.05;94919.75;2617530;54;20157;-81
2022/05/08 02:24:22;;;;;;;2.20;0.80;;;;;;;15.64;42.43;94930.03;2617560;47;20149;-81
2022/05/08 02:26:51;;;;;;;1.30;1.20;;;;;;;15.75;42.06;94910.94;2617163;47;20168;-81
2022/05/08 02:29:20;;;;;;;1.07;0.97;;;;;;;15.82;42.13;94903.91;2617479;54;20683;-80
2022/05/08 02:31:48;;;;;;;1.00;0.93;;;;;;;16.04;41.88;94929.25;2617786;46;20272;-81
2022/05/08 02:34:17;;;;;;;0.80;0.80;;;;;;;15.91;41.36;94899.06;2617477;54;20153;-80
2022/05/08 02:36:46;;;;;;;1.37;1.37;;;;;;;14.76;42.80;94921.19;2617579;54;20160;-79
2022/05/08 02:39:15;;;;;;;10.53;1.37;;;;;;;14.05;42.82;94893.97;2617500;47;20184;-78
2022/05/08 02:41:47;;;;;;;1.43;1.33;;;;;;;13.26;45.44;94903.41;2617362;54;20157;-80
2022/05/08 02:44:16;;;;;;;0.97;0.97;;;;;;;13.19;46.49;94904.66;2617775;54;20153;-80
2022/05/08 02:46:44;;;;;;;1.23;1.20;;;;;;;12.92;47.02;94900.38;2617432;54;20161;-78
2022/05/08 02:49:13;;;;;;;0.83;0.83;;;;;;;13.07;45.42;94910.00;2617079;54;20168;-78
2022/05/08 02:51:43;;;;;;;1.77;1.57;;;;;;;12.15;46.17;94883.25;2617302;54;20188;-78
2022/05/08 02:54:16;;;;;;;0.93;0.93;;;;;;;10.58;50.95;94888.69;2617270;47;20156;-78
2022/05/08 02:59:34;;;;;;;8.30;1.67;;;;;;;10.13;52.15;94887.00;2617621;47;20196;-80
2022/05/08 03:02:07;;;;;;;1.60;1.30;;;;;;;9.24;52.44;94804.41;2617544;52;20145;-80
2022/05/08 03:04:36;;;;;;;1.03;1.03;;;;;;;9.65;54.24;94924.75;2617518;47;20145;-80
2022/05/08 03:07:06;;;;;;;2.53;1.67;;;;;;;9.42;55.96;94897.69;2617138;47;20385;-80
2022/05/08 03:09:34;;;;;;;1.23;1.23;;;;;;;9.96;53.40;94908.31;2617358;54;20189;-80
2022/05/08 03:12:07;;;;;;;1.10;1.10;;;;;;;10.28;53.17;94919.44;2617408;54;20145;-78
2022/05/08 03:14:42;;;;;;;1.00;1.00;;;;;;;10.01;52.57;94849.03;2617109;54;20169;-78
2022/05/08 03:17:14;;;;;;;1.07;1.07;;;;;;;10.53;52.44;94901.22;2589904;54;20149;-83
2022/05/08 03:19:43;;;;;;;2.00;1.63;;;;;;;11.29;50.55;94899.66;2617392;52;20388;-80
2022/05/08 03:22:12;;;;;;;1.23;1.13;;;;;;;11.42;49.94;94915.69;2617527;47;20648;-78
2022/05/08 03:24:41;;;;;;;1.30;1.30;;;;;;;12.19;49.68;94931.63;2617352;47;20160;-78
2022/05/08 03:27:13;;;;;;;1.20;1.10;;;;;;;11.79;48.94;94892.06;2617475;47;20176;-80
2022/05/08 03:29:42;;;;;;;0.87;0.87;;;;;;;11.97;49.09;94929.56;2617059;54;20160;-80
2022/05/08 03:32:19;;;;;;;3.37;0.90;;;;;;;11.63;49.80;94936.91;2617784;54;20177;-81
2022/05/08 03:34:51;;;;;;;1.57;1.50;;;;;;;11.16;50.95;94872.28;2618067;39;20569;-80
2022/05/08 03:37:20;;;;;;;1.67;1.57;;;;;;;11.66;50.64;94939.16;2617474;54;20145;-78
2022/05/08 03:39:49;;;;;;;5.90;1.47;;;;;;;11.08;51.67;94940.00;2617454;47;20157;-78
2022/05/08 03:42:21;;;;;;;1.00;1.00;;;;;;;10.68;52.37;94858.59;2617463;47;20149;-80
2022/05/08 03:44:53;;;;;;;1.57;1.27;;;;;;;11.79;49.40;94914.03;2617448;54;20153;-80
2022/05/08 03:47:29;;;;;;;0.73;0.73;;;;;;;11.76;49.65;94941.63;2617261;46;20161;-80
2022/05/08 03:50:02;;;;;;;1.00;1.00;;;;;;;11.19;52.12;94934.06;2617400;54;20160;-80
2022/05/08 03:52:31;;;;;;;1.20;1.10;;;;;;;11.10;51.65;94949.31;2617300;54;20675;-78
2022/05/08 03:55:00;;;;;;;1.23;1.23;;;;;;;10.30;53.54;94931.56;2617310;54;20280;-77
2022/05/08 03:57:31;;;;;;;1.07;1.07;;;;;;;10.43;53.81;94929.91;2617461;54;20172;-80
2022/05/08 04:00:00;;;;;;;1.95;1.85;;;;;;;10.36;53.94;94931.09;2617108;39;20843;-80
2022/05/08 04:02:47;;;;;;;1.23;1.17;;;;;;;10.68;53.39;94908.88;2617064;47;20145;-80
2022/05/08 04:05:16;;;;;;;1.10;1.10;;;;;;;10.97;53.65;94939.66;2617274;47;20172;-80
2022/05/08 04:07:45;;;;;;;11.70;2.53;;;;;;;11.12;52.24;94932.38;2617105;54;20199;-80
2022/05/08 04:10:14;;;;;;;1.23;1.23;;;;;;;11.09;51.86;94947.88;2616867;47;20203;-80
2022/05/08 04:12:47;;;;;;;1.43;1.30;;;;;;;12.75;49.96;94949.63;2617110;54;20176;-80
2022/05/08 04:17:57;;;;;;;1.23;1.23;;;;;;;13.66;46.78;94931.47;2616977;47;20180;-82
2022/05/08 04:20:26;;;;;;;1.00;1.00;;;;;;;14.38;45.52;94946.69;2616907;54;20149;-80
2022/05/08 04:25:42;;;;;;;0.80;0.80;;;;;;;15.29;43.57;94939.34;2617210;47;20703;-78
2022/05/08 04:28:14;;;;;;;1.33;1.23;;;;;;;15.47;42.50;94950.38;2617159;54;20148;-78
2022/05/08 04:30:43;;;;;;;1.07;1.07;;;;;;;15.48;40.96;94952.53;2616971;47;20152;-78
2022/05/08 04:33:12;;;;;;;2.60;1.10;;;;;;;15.19;41.24;94950.56;2617035;47;20152;-81
2022/05/08 04:35:40;;;;;;;1.20;1.17;;;;;;;15.20;42.15;94904.22;2617080;54;20152;-81
2022/05/08 04:38:11;;;;;;;1.33;1.33;;;;;;;15.64;39.16;94967.16;2617023;54;20152;-81
2022/05/08 04:40:48;;;;;;;2.27;1.13;;;;;;;15.13;38.84;94971.16;2617554;47;20691;-80
2022/05/08 04:43:20;;;;;;;1.30;1.20;;;;;;;13.86;39.83;94949.03;2618722;39;20549;-78
2022/05/08 04:45:49;;;;;;;0.97;0.97;;;;;;;12.70;41.84;94936.69;2617842;47;20145;-78
2022/05/08 04:48:19;;;;;;;1.30;1.13;;;;;;;13.24;43.61;94917.59;2617774;47;20152;-81
2022/05/08 04:50:47;;;;;;;2.50;1.10;;;;;;;14.20;44.95;94963.41;2617446;54;20165;-82
2022/05/08 04:53:16;;;;;;;0.90;0.90;;;;;;;14.27;41.39;94930.06;2617975;47;20169;-81
2022/05/08 04:55:45;;;;;;;1.30;1.20;;;;;;;14.72;40.49;94928.94;2617830;47;20152;-81
2022/05/08 04:58:14;;;;;;;1.27;1.17;;;;;;;15.33;41.81;94945.13;2617122;54;20153;-81
2022/05/08 05:00:52;;;;;;;1.10;1.10;;;;;;;15.48;40.42;94935.41;2617581;47;20390;-82
2022/05/08 05:03:21;;;;;;;0.90;0.90;;;;;;;16.27;38.26;94970.31;2618947;39;20534;-81
2022/05/08 05:05:53;;;;;;;0.63;0.63;;;;;;;16.41;38.22;94969.81;2617750;54;20145;-84
2022/05/08 05:08:36;;;;;;;0.80;0.80;;;;;;;16.16;38.82;94915.16;2617406;54;20153;-81
2022/05/08 05:11:10;;;;;;;2.40;1.10;;;;;;;16.66;38.48;94960.97;2617750;47;20264;-80
2022/05/08 05:13:40;;;;;;;1.17;1.07;;;;;;;16.65;38.03;94956.66;2617760;47;20153;-83
2022/05/08 05:18:59;;;;;;;1.43;1.23;;;;;;;16.84;39.23;94994.78;2616294;47;20208;-86
2022/05/08 05:24:12;;;;;;;1.10;1.03;;;;;;;16.21;35.13;94979.53;2617321;47;20180;-85
2022/05/08 05:26:42;;;;;;;1.13;1.13;;;;;;;15.35;35.43;94856.69;2618121;54;20157;-81
2022/05/08 05:29:33;;;;;;;1.47;1.37;;;;;;;15.69;35.54;94945.09;2617997;54;20149;-83
2022/05/08 05:32:32;;;;;;;1.47;1.37;;;;;;;14.44;35.60;94755.22;2617261;54;20684;-82
2022/05/08 05:37:42;;;;;;;0.97;0.97;;;;;;;14.48;37.24;94810.19;2617382;47;20157;-84
2022/05/08 05:40:15;;;;;;;0.73;0.73;;;;;;;15.38;36.19;94869.59;2617459;54;20180;-85
2022/05/08 05:42:45;;;;;;;0.83;0.83;;;;;;;16.23;36.42;94933.13;2618168;54;20661;-87
2022/05/08 05:45:14;;;;;;;0.90;0.90;;;;;;;16.56;34.33;94934.31;2617915;54;20149;-85
2022/05/08 05:48:18;;;;;;;1.00;1.00;;;;;;;16.70;34.73;94937.38;2618241;54;20145;-85
2022/05/08 05:51:22;;;;;;;1.00;1.00;;;;;;;16.63;36.06;94964.47;2617212;54;20165;-85
2022/05/08 05:56:50;;;;;;;1.20;1.17;;;;;;;16.80;36.53;94931.09;2619043;47;20688;-87
2022/05/08 05:59:29;;;;;;;;;;;;;;;;;;;;;
2022/05/08 06:02:04;;;;;;;1.37;0.90;;;;;;;17.77;34.00;94968.75;2617658;54;20175;-82
2022/05/08 06:04:33;;;;;;;2.03;1.17;;;;;;;17.91;35.97;94955.25;2617493;54;20190;-84
2022/05/08 06:07:05;;;;;;;0.90;0.90;;;;;;;17.67;35.89;94924.22;2617551;54;20156;-84
2022/05/08 06:09:44;;;;;;;1.23;0.83;;;;;;;17.52;35.66;94898.97;2617432;47;20152;-82
2022/05/08 06:12:16;;;;;;;0.87;0.87;;;;;;;17.04;35.90;94822.66;2617653;39;20646;-82
2022/05/08 06:14:46;;;;;;;0.90;0.90;;;;;;;17.35;34.93;94927.47;2616951;54;20157;-84
2022/05/08 06:17:14;;;;;;;1.00;1.00;;;;;;;17.44;32.67;94922.53;2617343;54;20145;-79
2022/05/08 06:19:43;;;;;;;0.93;0.93;;;;;;;18.02;34.89;94953.94;2617451;47;20184;-83
2022/05/08 06:25:01;;;;;;;1.27;1.00;;;;;;;17.46;35.26;94861.72;2616641;47;20687;-82
2022/05/08 06:27:30;;;;;;;1.60;1.50;;;;;;;18.28;34.06;94938.38;2616960;54;20152;-83
2022/05/08 06:32:57;;;;;;;1.10;0.80;;;;;;;17.78;32.99;94962.28;2617133;47;20149;-85
2022/05/08 06:35:30;;;;;;;1.33;1.20;;;;;;;16.66;36.32;94800.81;2616442;54;20244;-84
2022/05/08 06:38:19;;;;;;;0.83;0.83;;;;;;;17.93;33.68;94963.13;2617025;47;20149;-81
2022/05/08 06:40:49;;;;;;;0.63;0.63;;;;;;;16.96;34.29;94783.22;2617039;47;20168;-82
2022/05/08 06:43:31;;;;;;;0.90;0.90;;;;;;;18.05;32.63;94874.41;2616999;54;20157;-85
2022/05/08 06:46:03;;;;;;;1.13;1.10;;;;;;;18.52;30.88;94923.47;2617117;54;20177;-82
2022/05/08 06:48:33;;;;;;;1.17;1.00;;;;;;;18.06;32.79;94845.03;2617239;54;20167;-82
2022/05/08 06:51:03;;;;;;;0.70;0.70;;;;;;;17.87;33.95;94794.06;2617042;54;20153;-83
2022/05/08 06:56:18;;;;;;;1.30;0.77;;;;;;;17.81;32.34;94796.88;2616766;47;20165;-86
2022/05/08 07:02:04;;;;;;;0.50;0.50;;;;;;;18.51;31.35;94858.94;2617325;54;20221;-79
2022/05/08 07:04:53;;;;;;;1.07;1.00;;;;;;;16.77;30.77;94721.56;2617229;39;20558;-81
2022/05/08 07:07:25;;;;;;;1.17;1.10;;;;;;;17.27;31.94;94875.13;2616998;47;20156;-80
2022/05/08 07:10:07;;;;;;;1.90;0.90;;;;;;;18.01;35.41;94915.22;2616456;54;20189;-82
2022/05/08 07:12:37;;;;;;;0.90;0.90;;;;;;;18.98;31.24;94948.88;2616916;47;20153;-80
2022/05/08 07:15:08;;;;;;;2.30;1.00;;;;;;;19.08;33.35;94949.63;2616874;54;20203;-79
2022/05/08 07:17:37;;;;;;;1.53;1.00;;;;;;;18.48;30.95;94887.59;2616742;54;20157;-78
2022/05/08 07:20:08;;;;;;;1.47;0.90;;;;;;;18.91;30.62;94944.50;2617002;47;20157;-79
2022/05/08 07:23:14;;;;;;;1.57;1.37;;;;;;;18.33;31.08;94814.38;2617217;47;20161;-84
2022/05/08 07:30:08;;;;;;;;;;;;;;;;;;;;;
2022/05/08 07:33:40;;;;;;;;;;;;;;;;;;;;;
2022/05/08 07:36:15;;;;;;;1.10;1.00;;;;;;;18.68;33.43;94935.06;2615348;54;20175;-81
2022/05/08 07:38:58;;;;;;;0.97;0.97;;;;;;;18.20;31.64;94801.41;2615658;47;20689;-81
2022/05/08 07:41:30;;;;;;;0.90;0.90;;;;;;;19.06;31.19;94943.16;2615795;47;20160;-81
2022/05/08 07:44:02;;;;;;;1.03;1.00;;;;;;;18.07;33.08;94814.22;2615941;39;20243;-83
2022/05/08 07:49:14;;;;;;;1.30;1.20;;;;;;;17.98;31.42;94775.50;2615299;46;20213;-82
2022/05/08 07:51:46;;;;;;;1.13;1.13;;;;;;;17.40;31.30;94724.94;2615256;54;20157;-82
2022/05/08 07:57:42;;;;;;;1.30;1.13;;;;;;;17.09;31.64;94660.31;2615344;47;20197;-81
2022/05/08 08:00:49;;;;;;;1.20;1.20;;;;;;;17.40;32.20;94659.81;2614890;39;20237;-86
2022/05/08 08:03:43;;;;;;;8.80;1.30;;;;;;;18.50;31.68;94729.16;2615375;54;20172;-83
2022/05/08 08:06:30;;;;;;;4.55;1.02;;;;;;;17.73;29.83;94677.22;2615939;39;20571;-80
2022/05/08 08:09:13;;;;;;;;;;;;;;;;;;;;;
2022/05/08 08:11:42;;;;;;;5.43;1.30;;;;;;;19.70;28.62;94844.25;2614961;39;20443;-82
2022/05/08 08:14:19;;;;;;;0.95;0.95;;;;;;;18.10;29.86;94666.66;2615365;47;20160;-83
2022/05/08 08:16:47;;;;;;;3.33;1.38;;;;;;;19.24;29.90;94894.44;2616812;39;20532;-80
2022/05/08 08:19:17;;;;;;;1.50;1.40;;;;;;;17.81;32.41;94900.00;2616285;47;20399;-80
2022/05/08 08:21:50;;;;;;;1.50;1.40;;;;;;;17.77;33.24;94920.03;2616280;47;20161;-81
2022/05/08 08:24:27;;;;;;;0.93;0.93;;;;;;;17.15;30.95;94720.47;2615857;47;20159;-79
2022/05/08 08:26:55;;;;;;;0.97;0.97;;;;;;;18.36;31.44;94886.81;2616332;46;20167;-81
2022/05/08 08:29:25;;;;;;;1.17;1.17;;;;;;;18.49;32.08;94905.53;2616701;46;20165;-82
2022/05/08 08:32:00;;;;;;;0.93;0.90;;;;;;;19.29;31.05;94890.13;2616152;46;20173;-83
2022/05/08 08:37:20;;;;;;;1.20;0.93;;;;;;;19.13;31.43;94747.25;2617479;47;20185;-83
2022/05/08 08:40:12;;;;;;;1.33;1.23;;;;;;;18.01;31.76;94670.91;2617606;47;20152;-80
2022/05/08 08:42:50;;;;;;;1.20;1.20;;;;;;;19.63;30.69;94894.53;2617542;54;20188;-81
2022/05/08 08:48:29;;;;;;;0.80;0.80;;;;;;;19.53;32.25;94892.38;2617705;47;20153;-82
2022/05/08 08:51:00;;;;;;;1.60;1.50;;;;;;;19.24;30.55;94839.88;2617474;54;20145;-84
2022/05/08 08:53:30;;;;;;;0.98;0.98;;;;;;;19.62;31.12;94870.13;2617498;47;20161;-82
2022/05/08 08:56:02;;;;;;;1.25;1.13;;;;;;;19.50;29.26;94853.59;2617994;54;20152;-81
2022/05/08 09:01:12;;;;;;;1.30;1.30;;;;;;;19.46;29.84;94816.19;2617459;47;20190;-80
2022/05/08 09:03:40;;;;;;;0.80;0.80;;;;;;;19.87;27.99;94886.66;2617678;54;20153;-82
2022/05/08 09:06:10;;;;;;;1.17;1.08;;;;;;;19.39;28.89;94880.81;2617441;47;20153;-80
2022/05/08 09:08:39;;;;;;;0.90;0.90;;;;;;;19.20;30.20;94877.19;2617267;47;20687;-79
2022/05/08 09:11:10;;;;;;;1.02;1.00;;;;;;;18.56;29.09;94768.63;2617183;54;20193;-78
2022/05/08 09:13:52;;;;;;;2.40;1.17;;;;;;;20.24;28.51;94855.72;2617238;54;20149;-79
2022/05/08 09:16:21;;;;;;;0.63;0.63;;;;;;;20.33;28.19;94870.81;2617191;47;20164;-80
2022/05/08 09:18:51;;;;;;;1.42;1.42;;;;;;;20.19;28.94;94854.31;2617321;54;20168;-79
2022/05/08 09:24:10;;;;;;;0.67;0.67;;;;;;;20.06;28.51;94869.41;2617367;47;20156;-80
2022/05/08 09:26:51;;;;;;;;;;;;;;;;;;;;;
2022/05/08 09:29:23;;;;;;;1.98;1.23;;;;;;;20.52;28.01;94865.78;2618156;54;20191;-79
2022/05/08 09:31:52;;;;;;;0.82;0.82;;;;;;;20.40;27.37;94848.53;2618126;54;20244;-84
2022/05/08 09:34:21;;;;;;;1.00;1.00;;;;;;;20.02;26.26;94866.53;2618096;54;20153;-84
2022/05/08 09:37:07;;;;;;;1.00;0.90;;;;;;;19.54;27.84;94841.38;2618374;47;20168;-83
2022/05/08 09:40:19;;;;;;;1.83;0.93;;;;;;;19.63;27.46;94857.91;2618159;54;20145;-83
2022/05/08 09:45:34;;;;;;;1.07;0.97;;;;;;;19.53;31.02;94800.44;2617640;47;20191;-80
2022/05/08 09:48:04;;;;;;;1.00;1.00;;;;;;;20.44;25.03;94829.13;2618173;54;20149;-82
2022/05/08 09:50:34;;;;;;;1.05;1.05;;;;;;;20.27;24.79;94835.59;2617932;47;20156;-80
2022/05/08 09:53:04;;;;;;;0.68;0.57;;;;;;;20.86;24.79;94839.78;2618019;47;20204;-79
2022/05/08 09:55:33;;;;;;;1.08;1.02;;;;;;;20.78;23.81;94830.44;2618041;47;20145;-78
2022/05/08 09:58:13;;;;;;;0.85;0.85;;;;;;;19.92;23.31;94757.31;2617974;54;20145;-79
2022/05/08 10:00:51;;;;;;;1.00;1.00;;;;;;;20.75;24.17;94829.03;2617776;54;20160;-80
2022/05/08 10:03:20;;;;;;;0.98;0.98;;;;;;;20.76;26.30;94824.72;2618460;39;20533;-79
2022/05/08 10:06:01;;;;;;;0.88;0.88;;;;;;;20.60;23.60;94808.22;2618055;47;20663;-85
2022/05/08 10:08:32;;;;;;;0.60;0.60;;;;;;;20.66;22.14;94775.81;2618196;47;20152;-82
2022/05/08 10:14:08;;;;;;;1.20;1.20;;;;;;;21.23;23.44;94816.56;2618208;47;20152;-75
2022/05/08 10:16:50;;;;;;;0.82;0.82;;;;;;;20.99;23.64;94817.41;2588873;47;20160;-76
2022/05/08 10:19:58;;;;;;;0.90;0.90;;;;;;;21.02;24.48;94821.00;2617764;47;20372;-79
2022/05/08 10:22:27;;;;;;;1.17;1.02;;;;;;;20.69;24.72;94800.97;2617524;54;20152;-79
2022/05/08 10:24:58;;;;;;;0.75;0.70;;;;;;;20.71;24.29;94788.75;2617960;54;20149;-80
2022/05/08 10:27:45;;;;;;;0.80;0.80;;;;;;;20.88;24.58;94810.97;2617946;54;20157;-80
2022/05/08 10:30:32;;;;;;;1.05;0.90;;;;;;;21.09;24.76;94799.34;2618427;39;20536;-79
2022/05/08 10:33:02;;;;;;;0.80;0.80;;;;;;;20.89;24.36;94765.63;2617608;54;20152;-80
2022/05/08 10:35:33;;;;;;;0.68;0.68;;;;;;;21.69;25.30;94806.91;2617996;47;20164;-81
2022/05/08 10:38:25;;;;;;;0.93;0.93;;;;;;;21.48;24.60;94796.97;2617828;47;20141;-80
2022/05/08 10:41:00;;;;;;;0.98;0.98;;;;;;;21.63;23.83;94781.72;2617912;47;20507;-81
2022/05/08 10:43:32;;;;;;;1.05;1.05;;;;;;;22.46;24.38;94794.66;2618148;47;20160;-78
2022/05/08 10:46:25;;;;;;;0.75;0.75;;;;;;;21.48;22.97;94756.63;2618031;54;20171;-82
2022/05/08 10:48:54;;;;;;;0.80;0.80;;;;;;;21.71;23.00;94769.41;2618233;47;20145;-79
2022/05/08 10:51:24;;;;;;;0.98;0.98;;;;;;;22.26;22.90;94754.50;2616868;47;20149;-83
2022/05/08 10:54:01;;;;;;;0.63;0.63;;;;;;;20.85;23.00;94728.94;2617447;54;20162;-83
2022/05/08 10:56:51;;;;;;;1.05;1.05;;;;;;;21.04;24.43;94790.03;2617963;54;20180;-82
2022/05/08 10:59:19;;;;;;;0.88;0.88;;;;;;;21.44;23.74;94765.31;2618004;54;20151;-83
2022/05/08 11:01:56;;;;;;;1.20;1.20;;;;;;;20.71;24.20;94705.28;2617311;47;20395;-79
2022/05/08 11:04:25;;;;;;;1.65;0.93;;;;;;;20.86;25.58;94741.91;2617974;54;20149;-79
2022/05/08 11:06:57;;;;;;;3.70;0.93;;;;;;;20.81;24.78;94766.38;2617632;54;20267;-79
2022/05/08 11:09:34;;;;;;;0.85;0.85;;;;;;;20.95;25.32;94777.09;2617881;54;20786;-81
2022/05/08 11:12:07;;;;;;;1.15;1.00;;;;;;;21.27;24.25;94759.66;2617612;54;20411;-81
2022/05/08 11:14:36;;;;;;;2.53;0.93;;;;;;;20.98;25.37;94769.19;2617735;47;20152;-80
2022/05/08 11:17:20;;;;;;;3.30;2.13;;;;;;;21.23;25.33;94741.69;2618062;54;20164;-79
2022/05/08 11:19:57;;;;;;;1.08;1.00;;;;;;;21.18;26.67;94735.19;2618023;54;20167;-80
2022/05/08 11:22:33;;;;;;;1.20;0.82;;;;;;;21.47;24.92;94755.91;2617788;47;20151;-79
2022/05/08 11:25:29;;;;;;;0.93;0.93;;;;;;;21.53;25.65;94749.38;2617727;54;20149;-80
2022/05/08 11:27:58;;;;;;;1.17;1.08;;;;;;;20.93;26.91;94679.94;2616406;47;20172;-82
2022/05/08 11:30:50;;;;;;;1.58;1.30;;;;;;;20.36;26.93;94635.72;2618127;54;20156;-84
2022/05/08 11:36:14;;;;;;;1.17;1.08;;;;;;;21.85;24.28;94713.78;2617279;54;20688;-81
2022/05/08 11:38:52;;;;;;;0.70;0.70;;;;;;;21.70;24.23;94681.50;2617380;47;20157;-80
2022/05/08 11:41:24;;;;;;;1.80;1.00;;;;;;;20.86;23.70;94562.69;2618406;54;20149;-77
2022/05/08 11:43:55;;;;;;;0.63;0.63;;;;;;;20.98;24.14;94717.34;2617900;54;20153;-79
2022/05/08 11:46:41;;;;;;;1.20;1.20;;;;;;;21.19;24.50;94690.56;2617415;54;20392;-79
2022/05/08 11:49:27;;;;;;;0.55;0.55;;;;;;;21.64;23.50;94708.22;2617522;47;20148;-78
2022/05/08 11:51:58;;;;;;;1.45;1.05;;;;;;;20.23;24.48;94496.97;2617881;47;20148;-83
2022/05/08 11:54:32;;;;;;;3.30;1.30;;;;;;;21.11;24.46;94745.34;2618015;54;20751;-83
2022/05/08 11:57:16;;;;;;;1.50;1.13;;;;;;;21.26;23.14;94686.22;2617946;47;20164;-83
2022/05/08 11:59:46;;;;;;;0.88;0.88;;;;;;;21.55;21.80;94727.03;2617808;47;20157;-80
2022/05/08 12:02:16;;;;;;;0.70;0.70;;;;;;;21.31;22.71;94672.50;2617933;39;20576;-82
2022/05/08 12:04:59;;;;;;;1.17;0.70;;;;;;;21.20;22.03;94674.72;2617617;39;20552;-83
2022/05/08 12:07:28;;;;;;;1.67;0.70;;;;;;;20.96;22.69;94671.28;2617397;54;20148;-84
